Time;durP1;ratioP1;P1;durP2;ratioP2;P2;SDS_P1;SDS_P2;PMS_P1;PMS_P2;Temp;Humidity;BMP_temperature;BMP_pressure;BME280_temperature;BME280_humidity;BME280_pressure;Samples;Min_cycle;Max_cycle;Signal;HPM_P1;HPM_P2
2022/04/15 00:01:07;;;;;;;;;;;21.00;46.20;;;;;;454030;263;1524;-76
2022/04/15 00:03:11;;;;;;;;;;;21.10;46.00;;;;;;454200;262;1177;-76
2022/04/15 00:07:29;;;;;;;;;;;21.10;46.10;;;;;;454217;261;1161;-76
2022/04/15 00:09:31;;;;;;;;;;;21.10;46.30;;;;;;454277;263;2141;-76
2022/04/15 00:11:32;;;;;;;;;;;21.10;46.30;;;;;;454242;262;1213;-76
2022/04/15 00:13:35;;;;;;;;;;;21.20;46.40;;;;;;454233;263;1115;-76
2022/04/15 00:15:35;;;;;;;;;;;21.10;46.50;;;;;;454251;262;1403;-76
2022/04/15 00:17:36;;;;;;;;;;;21.10;46.60;;;;;;454146;263;1185;-76
2022/04/15 00:19:37;;;;;;;;;;;21.10;46.70;;;;;;454236;262;1111;-76
2022/04/15 00:21:39;;;;;;;;;;;21.00;46.70;;;;;;454194;263;1191;-76
2022/04/15 00:23:41;;;;;;;;;;;21.00;46.90;;;;;;454236;263;1167;-76
2022/04/15 00:25:41;;;;;;;;;;;21.10;46.90;;;;;;454372;262;1467;-76
2022/04/15 00:27:43;;;;;;;;;;;21.10;46.90;;;;;;454200;263;1149;-76
2022/04/15 00:29:44;;;;;;;;;;;21.00;46.90;;;;;;454259;262;2149;-76
2022/04/15 00:31:45;;;;;;;;;;;21.10;46.80;;;;;;454224;263;1264;-76
2022/04/15 00:33:47;;;;;;;;;;;21.10;46.90;;;;;;454248;262;1247;-76
2022/04/15 00:35:48;;;;;;;;;;;21.10;47.00;;;;;;454168;263;1165;-76
2022/04/15 00:37:49;;;;;;;;;;;21.10;46.90;;;;;;454251;262;1248;-76
2022/04/15 00:39:51;;;;;;;;;;;21.10;46.90;;;;;;454225;262;1133;-76
2022/04/15 00:41:52;;;;;;;;;;;21.10;47.00;;;;;;454238;263;1268;-76
2022/04/15 00:43:54;;;;;;;;;;;21.00;47.10;;;;;;454310;262;1081;-76
2022/04/15 00:45:55;;;;;;;;;;;21.00;47.30;;;;;;454254;263;1162;-76
2022/04/15 00:47:56;;;;;;;;;;;21.00;47.30;;;;;;454252;262;1031;-76
2022/04/15 00:49:58;;;;;;;;;;;21.00;47.40;;;;;;454283;262;2200;-76
2022/04/15 00:51:59;;;;;;;;;;;20.90;47.50;;;;;;454259;263;1055;-76
2022/04/15 00:54:00;;;;;;;;;;;21.00;47.50;;;;;;454272;263;984;-76
2022/04/15 00:56:03;;;;;;;;;;;21.00;47.40;;;;;;454272;262;970;-76
2022/04/15 00:58:03;;;;;;;;;;;21.00;47.40;;;;;;454320;263;1413;-76
2022/04/15 01:00:05;;;;;;;;;;;20.90;47.50;;;;;;454220;263;1063;-76
2022/04/15 01:02:06;;;;;;;;;;;20.90;47.50;;;;;;454225;263;1164;-76
2022/04/15 01:04:07;;;;;;;;;;;20.90;47.60;;;;;;454323;263;1324;-76
2022/04/15 01:06:08;;;;;;;;;;;20.90;47.60;;;;;;454234;262;1100;-76
2022/04/15 01:08:10;;;;;;;;;;;21.00;47.60;;;;;;454289;263;1090;-76
2022/04/15 01:10:11;;;;;;;;;;;20.90;47.60;;;;;;454225;263;2208;-76
2022/04/15 01:12:13;;;;;;;;;;;20.80;47.90;;;;;;454189;263;1064;-76
2022/04/15 01:14:14;;;;;;;;;;;20.80;48.00;;;;;;454312;262;1043;-76
2022/04/15 01:16:15;;;;;;;;;;;20.90;47.90;;;;;;454283;262;1160;-76
2022/04/15 01:18:17;;;;;;;;;;;21.00;47.70;;;;;;454244;263;1135;-76
2022/04/15 01:20:18;;;;;;;;;;;20.90;47.70;;;;;;454356;262;961;-76
2022/04/15 01:22:19;;;;;;;;;;;20.90;47.70;;;;;;454313;262;1095;-76
2022/04/15 01:24:21;;;;;;;;;;;21.00;47.60;;;;;;454311;262;965;-76
2022/04/15 01:26:22;;;;;;;;;;;21.00;47.70;;;;;;454242;263;1073;-76
2022/04/15 01:28:24;;;;;;;;;;;20.90;47.80;;;;;;454218;263;1094;-76
2022/04/15 01:30:25;;;;;;;;;;;21.00;47.80;;;;;;454248;263;2157;-76
2022/04/15 01:32:26;;;;;;;;;;;20.90;47.90;;;;;;454208;263;1273;-76
2022/04/15 01:34:28;;;;;;;;;;;21.00;47.80;;;;;;454255;263;962;-76
2022/04/15 01:36:29;;;;;;;;;;;21.10;47.70;;;;;;454223;263;985;-76
2022/04/15 01:38:30;;;;;;;;;;;21.00;47.70;;;;;;454267;262;1036;-76
2022/04/15 01:40:31;;;;;;;;;;;21.10;47.70;;;;;;454186;262;1105;-76
2022/04/15 01:42:33;;;;;;;;;;;21.00;47.70;;;;;;454200;263;1091;-76
2022/04/15 01:44:34;;;;;;;;;;;21.00;47.80;;;;;;454373;262;963;-76
2022/04/15 01:46:35;;;;;;;;;;;20.90;47.90;;;;;;454225;263;1144;-76
2022/04/15 01:48:37;;;;;;;;;;;21.10;47.80;;;;;;454255;262;965;-76
2022/04/15 01:50:38;;;;;;;;;;;21.00;47.90;;;;;;454246;263;2145;-76
2022/04/15 01:52:39;;;;;;;;;;;21.00;47.80;;;;;;454214;263;1265;-76
2022/04/15 01:54:41;;;;;;;;;;;21.00;47.90;;;;;;454305;262;1026;-76
2022/04/15 01:56:42;;;;;;;;;;;21.00;48.00;;;;;;454209;263;1267;-76
2022/04/15 01:58:43;;;;;;;;;;;21.00;47.90;;;;;;454290;262;1095;-76
2022/04/15 02:00:45;;;;;;;;;;;21.00;48.00;;;;;;454234;263;1066;-76
2022/04/15 02:02:46;;;;;;;;;;;21.10;47.70;;;;;;454184;263;1214;-76
2022/04/15 02:04:47;;;;;;;;;;;21.00;47.90;;;;;;454292;262;1111;-76
2022/04/15 02:06:49;;;;;;;;;;;21.00;47.90;;;;;;454259;262;1237;-76
2022/04/15 02:08:50;;;;;;;;;;;21.00;48.00;;;;;;454263;262;1053;-76
2022/04/15 02:10:51;;;;;;;;;;;21.00;48.10;;;;;;454213;262;2204;-76
2022/04/15 02:12:53;;;;;;;;;;;21.00;48.00;;;;;;454333;263;1127;-76
2022/04/15 02:14:54;;;;;;;;;;;21.00;48.10;;;;;;454258;263;956;-76
2022/04/15 02:16:55;;;;;;;;;;;21.00;48.00;;;;;;454194;262;1340;-76
2022/04/15 02:18:57;;;;;;;;;;;21.00;48.00;;;;;;454232;263;1192;-76
2022/04/15 02:20:58;;;;;;;;;;;21.00;48.10;;;;;;454209;263;1240;-76
2022/04/15 02:22:59;;;;;;;;;;;21.00;48.10;;;;;;454238;262;1003;-76
2022/04/15 02:25:01;;;;;;;;;;;21.10;48.00;;;;;;454398;262;1047;-76
2022/04/15 02:27:02;;;;;;;;;;;21.10;47.90;;;;;;454204;263;971;-76
2022/04/15 02:29:03;;;;;;;;;;;21.10;48.00;;;;;;454252;263;1003;-76
2022/04/15 02:31:05;;;;;;;;;;;21.00;48.00;;;;;;454172;262;2216;-76
2022/04/15 02:33:06;;;;;;;;;;;21.10;48.10;;;;;;454216;263;1182;-76
2022/04/15 02:35:09;;;;;;;;;;;21.10;48.10;;;;;;454283;262;1096;-76
2022/04/15 02:37:10;;;;;;;;;;;21.10;48.10;;;;;;454199;262;1003;-76
2022/04/15 02:39:11;;;;;;;;;;;21.10;48.10;;;;;;454240;263;980;-76
2022/04/15 02:41:12;;;;;;;;;;;21.10;47.90;;;;;;454222;262;1072;-76
2022/04/15 02:43:14;;;;;;;;;;;21.10;48.10;;;;;;454256;262;1239;-76
2022/04/15 02:45:15;;;;;;;;;;;21.10;48.10;;;;;;454238;263;1015;-76
2022/04/15 02:47:16;;;;;;;;;;;21.10;48.20;;;;;;454177;262;1160;-76
2022/04/15 02:49:18;;;;;;;;;;;21.00;48.30;;;;;;454197;263;1056;-76
2022/04/15 02:51:19;;;;;;;;;;;21.00;48.30;;;;;;454203;262;2164;-76
2022/04/15 02:53:20;;;;;;;;;;;21.00;48.20;;;;;;454302;263;1054;-76
2022/04/15 02:55:22;;;;;;;;;;;21.00;48.30;;;;;;454252;263;1005;-76
2022/04/15 02:57:23;;;;;;;;;;;21.10;48.20;;;;;;454214;262;1123;-76
2022/04/15 02:59:24;;;;;;;;;;;21.00;48.20;;;;;;454276;263;1517;-76
2022/04/15 03:01:26;;;;;;;;;;;21.10;48.20;;;;;;454213;262;1418;-76
2022/04/15 03:03:28;;;;;;;;;;;21.00;48.30;;;;;;454248;263;1206;-76
2022/04/15 03:05:30;;;;;;;;;;;21.10;48.30;;;;;;454230;262;997;-76
2022/04/15 03:07:31;;;;;;;;;;;21.00;48.40;;;;;;454189;263;1200;-76
2022/04/15 03:09:32;;;;;;;;;;;21.00;48.30;;;;;;454240;262;971;-76
2022/04/15 03:11:37;;;;;;;;;;;21.10;48.20;;;;;;454220;262;2189;-76
2022/04/15 03:13:35;;;;;;;;;;;21.00;48.20;;;;;;454166;263;1652;-76
2022/04/15 03:15:37;;;;;;;;;;;21.00;48.40;;;;;;454243;263;1151;-76
2022/04/15 03:17:37;;;;;;;;;;;21.10;48.30;;;;;;454180;262;1274;-76
2022/04/15 03:19:39;;;;;;;;;;;21.00;48.30;;;;;;454241;263;1109;-76
2022/04/15 03:21:40;;;;;;;;;;;21.00;48.30;;;;;;454223;262;1120;-76
2022/04/15 03:23:42;;;;;;;;;;;21.00;48.50;;;;;;454259;263;1131;-76
2022/04/15 03:25:43;;;;;;;;;;;21.00;48.40;;;;;;454221;263;1485;-76
2022/04/15 03:27:44;;;;;;;;;;;20.90;48.40;;;;;;454225;262;1305;-76
2022/04/15 03:29:45;;;;;;;;;;;21.00;48.30;;;;;;454261;263;1028;-76
2022/04/15 03:31:47;;;;;;;;;;;21.00;48.40;;;;;;454199;262;2212;-76
2022/04/15 03:33:48;;;;;;;;;;;21.00;48.50;;;;;;454282;262;1196;-76
2022/04/15 03:35:49;;;;;;;;;;;21.00;48.50;;;;;;454241;262;1075;-76
2022/04/15 03:37:51;;;;;;;;;;;21.00;48.50;;;;;;454328;263;1096;-76
2022/04/15 03:39:52;;;;;;;;;;;21.00;48.50;;;;;;454301;262;973;-76
2022/04/15 03:41:53;;;;;;;;;;;21.00;48.50;;;;;;454400;262;1250;-76
2022/04/15 03:43:55;;;;;;;;;;;21.00;48.50;;;;;;454258;263;989;-76
2022/04/15 03:45:56;;;;;;;;;;;20.90;48.60;;;;;;454252;262;1242;-76
2022/04/15 03:47:58;;;;;;;;;;;20.90;48.50;;;;;;454248;263;1097;-76
2022/04/15 03:49:59;;;;;;;;;;;21.00;48.50;;;;;;454349;262;1001;-76
2022/04/15 03:52:01;;;;;;;;;;;21.00;48.50;;;;;;454294;263;2212;-76
2022/04/15 03:54:02;;;;;;;;;;;21.00;48.40;;;;;;454313;262;974;-76
2022/04/15 03:56:04;;;;;;;;;;;21.00;48.30;;;;;;454307;262;1400;-76
2022/04/15 03:58:05;;;;;;;;;;;21.10;48.40;;;;;;454270;262;1088;-76
2022/04/15 04:00:06;;;;;;;;;;;21.00;48.50;;;;;;454281;262;1128;-76
2022/04/15 04:02:08;;;;;;;;;;;21.10;48.30;;;;;;454243;263;1168;-76
2022/04/15 04:04:09;;;;;;;;;;;21.00;48.50;;;;;;454257;262;1185;-76
2022/04/15 04:06:10;;;;;;;;;;;21.10;48.30;;;;;;454226;263;1424;-76
2022/04/15 04:08:11;;;;;;;;;;;21.10;48.30;;;;;;454370;263;1155;-76
2022/04/15 04:10:13;;;;;;;;;;;21.00;48.30;;;;;;454267;263;1027;-76
2022/04/15 04:12:14;;;;;;;;;;;21.10;48.40;;;;;;454226;262;2200;-76
2022/04/15 04:14:15;;;;;;;;;;;21.10;48.50;;;;;;454269;263;990;-76
2022/04/15 04:16:18;;;;;;;;;;;21.00;48.50;;;;;;454231;262;1212;-76
2022/04/15 04:18:21;;;;;;;;;;;21.00;48.50;;;;;;454316;263;1482;-76
2022/04/15 04:20:20;;;;;;;;;;;21.10;48.40;;;;;;454124;263;1570;-76
2022/04/15 04:22:21;;;;;;;;;;;21.00;48.60;;;;;;454220;263;1243;-76
2022/04/15 04:24:23;;;;;;;;;;;21.00;48.50;;;;;;454319;262;1073;-76
2022/04/15 04:26:24;;;;;;;;;;;21.00;48.50;;;;;;454261;263;1091;-76
2022/04/15 04:28:25;;;;;;;;;;;21.00;48.50;;;;;;454206;263;1271;-76
2022/04/15 04:30:27;;;;;;;;;;;21.00;48.40;;;;;;454214;262;1263;-76
2022/04/15 04:32:28;;;;;;;;;;;21.10;48.40;;;;;;454255;262;2220;-76
2022/04/15 04:34:29;;;;;;;;;;;21.10;48.50;;;;;;454247;263;1194;-76
2022/04/15 04:36:31;;;;;;;;;;;21.00;48.50;;;;;;454339;262;973;-76
2022/04/15 04:38:32;;;;;;;;;;;21.00;48.50;;;;;;454269;262;1047;-76
2022/04/15 04:40:33;;;;;;;;;;;20.90;48.60;;;;;;454337;262;1076;-76
2022/04/15 04:42:35;;;;;;;;;;;20.90;48.60;;;;;;454252;263;1033;-76
2022/04/15 04:44:36;;;;;;;;;;;21.00;48.60;;;;;;454321;262;973;-76
2022/04/15 04:46:37;;;;;;;;;;;21.00;48.60;;;;;;454276;263;1022;-75
2022/04/15 04:48:38;;;;;;;;;;;20.90;48.60;;;;;;454301;262;1078;-76
2022/04/15 04:50:40;;;;;;;;;;;21.00;48.70;;;;;;454420;262;1304;-76
2022/04/15 04:52:41;;;;;;;;;;;20.90;48.70;;;;;;454289;263;2141;-76
2022/04/15 04:54:43;;;;;;;;;;;20.90;48.60;;;;;;454387;262;1060;-76
2022/04/15 04:56:44;;;;;;;;;;;21.00;48.70;;;;;;454250;263;967;-76
2022/04/15 04:58:45;;;;;;;;;;;21.00;48.60;;;;;;454279;263;963;-76
2022/04/15 05:00:46;;;;;;;;;;;20.90;48.70;;;;;;454261;262;1082;-76
2022/04/15 05:02:48;;;;;;;;;;;20.90;48.60;;;;;;454287;262;1017;-76
2022/04/15 05:04:49;;;;;;;;;;;20.90;48.70;;;;;;454250;263;1187;-76
2022/04/15 05:06:51;;;;;;;;;;;20.90;48.60;;;;;;454168;263;1140;-76
2022/04/15 05:08:52;;;;;;;;;;;21.10;48.50;;;;;;454298;263;1486;-76
2022/04/15 05:10:54;;;;;;;;;;;21.00;48.60;;;;;;454274;262;1196;-76
2022/04/15 05:12:55;;;;;;;;;;;21.00;48.60;;;;;;454222;263;2150;-76
2022/04/15 05:14:56;;;;;;;;;;;20.90;48.70;;;;;;454301;262;981;-76
2022/04/15 05:16:57;;;;;;;;;;;20.90;48.80;;;;;;454180;262;1205;-76
2022/04/15 05:18:59;;;;;;;;;;;21.00;48.60;;;;;;454249;263;1179;-76
2022/04/15 05:21:00;;;;;;;;;;;21.10;48.60;;;;;;454306;262;1095;-76
2022/04/15 05:23:02;;;;;;;;;;;20.90;48.60;;;;;;454280;263;1237;-76
2022/04/15 05:25:03;;;;;;;;;;;21.00;48.70;;;;;;454380;262;956;-76
2022/04/15 05:27:04;;;;;;;;;;;20.80;49.00;;;;;;454314;262;1057;-76
2022/04/15 05:29:08;;;;;;;;;;;20.90;48.80;;;;;;454298;263;1025;-76
2022/04/15 05:31:07;;;;;;;;;;;20.90;48.80;;;;;;454140;263;1529;-76
2022/04/15 05:33:08;;;;;;;;;;;20.90;48.80;;;;;;454249;263;2211;-76
2022/04/15 05:35:10;;;;;;;;;;;20.90;48.60;;;;;;454302;262;1260;-76
2022/04/15 05:37:11;;;;;;;;;;;21.00;48.70;;;;;;454254;262;1085;-76
2022/04/15 05:39:13;;;;;;;;;;;20.90;48.80;;;;;;454306;262;959;-76
2022/04/15 05:41:14;;;;;;;;;;;20.90;48.70;;;;;;454228;263;1549;-76
2022/04/15 05:43:15;;;;;;;;;;;21.00;48.70;;;;;;454307;263;1091;-76
2022/04/15 05:45:16;;;;;;;;;;;20.90;48.70;;;;;;454310;263;1036;-76
2022/04/15 05:47:18;;;;;;;;;;;20.90;48.80;;;;;;454276;262;1180;-76
2022/04/15 05:49:19;;;;;;;;;;;20.90;48.80;;;;;;454290;263;1297;-76
2022/04/15 05:51:20;;;;;;;;;;;21.00;48.60;;;;;;454414;262;1138;-76
2022/04/15 05:53:22;;;;;;;;;;;21.00;48.70;;;;;;454384;263;2204;-76
2022/04/15 05:55:23;;;;;;;;;;;21.00;48.80;;;;;;454305;263;1105;-76
2022/04/15 05:57:24;;;;;;;;;;;21.00;48.70;;;;;;454278;262;1099;-76
2022/04/15 05:59:26;;;;;;;;;;;21.00;48.80;;;;;;454212;263;1098;-76
2022/04/15 06:01:27;;;;;;;;;;;20.90;48.80;;;;;;454352;262;1218;-76
2022/04/15 06:03:29;;;;;;;;;;;21.00;48.60;;;;;;454296;263;992;-76
2022/04/15 06:05:30;;;;;;;;;;;21.00;48.80;;;;;;454312;262;1184;-76
2022/04/15 06:07:31;;;;;;;;;;;21.10;48.60;;;;;;454288;263;1210;-76
2022/04/15 06:09:32;;;;;;;;;;;21.00;48.70;;;;;;454337;262;1076;-76
2022/04/15 06:11:34;;;;;;;;;;;21.00;48.80;;;;;;454240;263;2137;-76
2022/04/15 06:13:37;;;;;;;;;;;20.90;48.80;;;;;;454226;263;1375;-76
2022/04/15 06:15:41;;;;;;;;;;;21.00;48.80;;;;;;454180;263;1503;-76
2022/04/15 06:17:38;;;;;;;;;;;21.00;48.90;;;;;;453911;263;1446;-76
2022/04/15 06:19:39;;;;;;;;;;;20.90;48.90;;;;;;454259;262;1149;-76
2022/04/15 06:21:41;;;;;;;;;;;21.00;48.90;;;;;;454230;263;1261;-76
2022/04/15 06:23:42;;;;;;;;;;;20.90;48.90;;;;;;454269;262;968;-76
2022/04/15 06:25:44;;;;;;;;;;;20.90;48.90;;;;;;454248;263;1269;-76
2022/04/15 06:27:45;;;;;;;;;;;21.00;49.00;;;;;;454215;262;1117;-76
2022/04/15 06:29:46;;;;;;;;;;;21.00;48.80;;;;;;454256;262;998;-76
2022/04/15 06:31:48;;;;;;;;;;;21.00;48.90;;;;;;454180;263;2145;-76
2022/04/15 06:33:49;;;;;;;;;;;21.00;48.90;;;;;;454263;262;942;-76
2022/04/15 06:35:51;;;;;;;;;;;21.00;48.80;;;;;;454242;263;1207;-76
2022/04/15 06:37:53;;;;;;;;;;;21.10;48.80;;;;;;454203;262;1156;-76
2022/04/15 06:39:54;;;;;;;;;;;20.90;48.80;;;;;;454200;263;1121;-76
2022/04/15 06:41:55;;;;;;;;;;;20.90;48.90;;;;;;454225;263;1127;-76
2022/04/15 06:43:57;;;;;;;;;;;20.90;49.00;;;;;;454263;262;1087;-76
2022/04/15 06:45:58;;;;;;;;;;;20.90;49.00;;;;;;454197;263;1255;-76
2022/04/15 06:47:59;;;;;;;;;;;20.90;48.90;;;;;;454248;262;1181;-74
2022/04/15 06:50:00;;;;;;;;;;;20.90;49.00;;;;;;454211;263;1188;-75
2022/04/15 06:52:02;;;;;;;;;;;20.90;49.00;;;;;;454262;262;2212;-76
2022/04/15 06:54:03;;;;;;;;;;;21.00;48.90;;;;;;454243;263;1093;-76
2022/04/15 06:56:04;;;;;;;;;;;20.90;48.90;;;;;;454275;262;971;-76
2022/04/15 06:58:06;;;;;;;;;;;21.00;49.00;;;;;;454223;263;1041;-76
2022/04/15 07:00:08;;;;;;;;;;;20.90;48.80;;;;;;454323;262;1066;-76
2022/04/15 07:02:08;;;;;;;;;;;21.00;49.00;;;;;;454174;263;1189;-76
2022/04/15 07:04:10;;;;;;;;;;;20.90;49.00;;;;;;454349;262;976;-76
2022/04/15 07:06:11;;;;;;;;;;;21.00;49.00;;;;;;454298;262;1217;-76
2022/04/15 07:08:12;;;;;;;;;;;21.00;49.00;;;;;;454267;263;1121;-76
2022/04/15 07:10:14;;;;;;;;;;;21.00;48.80;;;;;;454318;262;1218;-76
2022/04/15 07:12:15;;;;;;;;;;;21.00;48.80;;;;;;454322;262;2208;-76
2022/04/15 07:14:16;;;;;;;;;;;21.00;49.00;;;;;;454398;263;1173;-76
2022/04/15 07:16:18;;;;;;;;;;;20.90;49.00;;;;;;454274;262;1403;-76
2022/04/15 07:18:19;;;;;;;;;;;21.00;49.00;;;;;;454284;263;1186;-76
2022/04/15 07:20:20;;;;;;;;;;;20.90;49.00;;;;;;454425;263;1124;-76
2022/04/15 07:22:22;;;;;;;;;;;20.90;49.00;;;;;;454305;262;1195;-76
2022/04/15 07:24:23;;;;;;;;;;;20.90;49.00;;;;;;454301;263;1077;-75
2022/04/15 07:26:24;;;;;;;;;;;21.00;49.00;;;;;;454265;263;1240;-76
2022/04/15 07:28:26;;;;;;;;;;;20.90;48.90;;;;;;454361;262;1081;-76
2022/04/15 07:30:27;;;;;;;;;;;20.90;49.10;;;;;;454294;263;1023;-76
2022/04/15 07:32:29;;;;;;;;;;;21.00;49.00;;;;;;454251;262;2216;-76
2022/04/15 07:34:30;;;;;;;;;;;20.90;49.00;;;;;;454366;263;1345;-76
2022/04/15 07:36:45;;;;;;;;;;;21.00;49.00;;;;;;454248;262;1196;-76
2022/04/15 07:38:45;;;;;;;;;;;21.00;49.00;;;;;;454216;263;1462;-76
2022/04/15 07:40:46;;;;;;;;;;;21.00;49.00;;;;;;454329;262;1238;-76
2022/04/15 07:42:48;;;;;;;;;;;21.00;48.90;;;;;;454289;263;1076;-76
2022/04/15 07:44:49;;;;;;;;;;;21.00;48.90;;;;;;454283;262;1045;-76
2022/04/15 07:46:50;;;;;;;;;;;20.90;49.00;;;;;;454219;263;1370;-76
2022/04/15 07:48:51;;;;;;;;;;;20.90;48.90;;;;;;454303;262;972;-76
2022/04/15 07:50:55;;;;;;;;;;;20.90;49.00;;;;;;454256;263;1273;-76
2022/04/15 07:52:54;;;;;;;;;;;21.00;49.00;;;;;;454258;263;2216;-76
2022/04/15 07:54:56;;;;;;;;;;;21.00;48.90;;;;;;454327;263;991;-76
2022/04/15 07:56:57;;;;;;;;;;;21.00;48.90;;;;;;454337;262;1252;-76
2022/04/15 07:58:58;;;;;;;;;;;21.00;48.90;;;;;;454292;263;957;-76
2022/04/15 08:01:00;;;;;;;;;;;21.00;48.90;;;;;;454261;262;1251;-76
2022/04/15 08:03:01;;;;;;;;;;;21.10;48.80;;;;;;454263;263;1001;-76
2022/04/15 08:05:02;;;;;;;;;;;21.00;48.80;;;;;;454381;262;991;-76
2022/04/15 08:07:04;;;;;;;;;;;21.00;48.70;;;;;;454228;263;1196;-76
2022/04/15 08:09:05;;;;;;;;;;;21.10;48.70;;;;;;454316;263;947;-76
2022/04/15 08:11:06;;;;;;;;;;;21.00;48.80;;;;;;454225;263;1257;-76
2022/04/15 08:13:08;;;;;;;;;;;20.90;48.80;;;;;;454355;262;2153;-76
2022/04/15 08:15:09;;;;;;;;;;;21.00;48.80;;;;;;454290;263;1062;-76
2022/04/15 08:17:10;;;;;;;;;;;21.10;48.80;;;;;;454309;262;1189;-76
2022/04/15 08:19:12;;;;;;;;;;;21.00;48.80;;;;;;454277;262;1052;-76
2022/04/15 08:21:13;;;;;;;;;;;21.00;48.90;;;;;;454254;262;1262;-76
2022/04/15 08:23:14;;;;;;;;;;;21.00;48.90;;;;;;454307;263;1256;-76
2022/04/15 08:25:16;;;;;;;;;;;20.90;49.10;;;;;;454232;262;1025;-76
2022/04/15 08:27:17;;;;;;;;;;;20.90;49.10;;;;;;454291;262;1160;-76
2022/04/15 08:29:18;;;;;;;;;;;21.00;49.10;;;;;;454222;263;1243;-76
2022/04/15 08:31:20;;;;;;;;;;;20.90;49.10;;;;;;454159;262;1236;-76
2022/04/15 08:33:22;;;;;;;;;;;21.00;49.00;;;;;;454237;262;2220;-76
2022/04/15 08:35:22;;;;;;;;;;;20.90;49.20;;;;;;454197;263;1550;-76
2022/04/15 08:37:24;;;;;;;;;;;20.90;49.10;;;;;;454287;262;1148;-76
2022/04/15 08:39:25;;;;;;;;;;;20.90;49.10;;;;;;454239;263;1000;-76
2022/04/15 08:41:27;;;;;;;;;;;20.90;49.20;;;;;;454219;262;1041;-76
2022/04/15 08:43:29;;;;;;;;;;;20.90;49.30;;;;;;454273;262;1026;-76
2022/04/15 08:45:30;;;;;;;;;;;20.80;49.20;;;;;;454248;262;1100;-76
2022/04/15 08:47:32;;;;;;;;;;;20.80;49.30;;;;;;454297;262;1134;-76
2022/04/15 08:49:33;;;;;;;;;;;20.80;49.40;;;;;;454235;263;1052;-76
2022/04/15 08:51:35;;;;;;;;;;;20.80;49.40;;;;;;454200;262;1160;-76
2022/04/15 08:53:36;;;;;;;;;;;20.80;49.40;;;;;;454182;263;2200;-76
2022/04/15 08:55:37;;;;;;;;;;;20.90;49.50;;;;;;454230;262;1090;-76
2022/04/15 08:57:39;;;;;;;;;;;20.90;49.30;;;;;;454313;263;1228;-76
2022/04/15 08:59:40;;;;;;;;;;;20.80;49.20;;;;;;454257;263;957;-76
2022/04/15 09:01:42;;;;;;;;;;;20.90;49.30;;;;;;454183;263;1148;-76
2022/04/15 09:03:43;;;;;;;;;;;20.80;49.40;;;;;;454317;263;1354;-76
2022/04/15 09:05:45;;;;;;;;;;;20.80;49.40;;;;;;454310;262;1478;-76
2022/04/15 09:07:46;;;;;;;;;;;20.90;49.30;;;;;;454179;263;1153;-76
2022/04/15 09:09:49;;;;;;;;;;;20.80;49.30;;;;;;454253;263;1103;-76
2022/04/15 09:11:48;;;;;;;;;;;20.80;49.30;;;;;;454120;262;1417;-76
2022/04/15 09:13:50;;;;;;;;;;;20.80;49.40;;;;;;454247;262;2133;-76
2022/04/15 09:15:51;;;;;;;;;;;20.80;49.50;;;;;;454250;262;1249;-76
2022/04/15 09:17:54;;;;;;;;;;;20.80;49.50;;;;;;454243;262;1550;-76
2022/04/15 09:19:54;;;;;;;;;;;20.80;49.30;;;;;;454252;263;1431;-76
2022/04/15 09:21:55;;;;;;;;;;;20.80;49.40;;;;;;454270;262;1292;-76
2022/04/15 09:23:57;;;;;;;;;;;20.80;49.30;;;;;;454303;262;1238;-75
2022/04/15 09:25:58;;;;;;;;;;;20.90;49.40;;;;;;454259;262;1373;-76
2022/04/15 09:27:59;;;;;;;;;;;20.90;49.30;;;;;;454226;262;1103;-76
2022/04/15 09:30:01;;;;;;;;;;;20.90;49.20;;;;;;454245;263;1181;-76
2022/04/15 09:32:02;;;;;;;;;;;20.80;49.40;;;;;;454211;262;1238;-76
2022/04/15 09:34:03;;;;;;;;;;;20.90;49.30;;;;;;454257;263;2196;-76
2022/04/15 09:36:05;;;;;;;;;;;20.80;49.10;;;;;;454215;262;1268;-76
2022/04/15 09:38:06;;;;;;;;;;;20.90;49.10;;;;;;454241;263;1232;-76
2022/04/15 09:40:07;;;;;;;;;;;20.90;49.10;;;;;;454269;262;1119;-76
2022/04/15 09:42:09;;;;;;;;;;;20.90;49.00;;;;;;454228;262;976;-76
2022/04/15 09:44:10;;;;;;;;;;;20.90;49.00;;;;;;454361;262;1169;-76
2022/04/15 09:46:11;;;;;;;;;;;20.90;49.00;;;;;;454213;263;1129;-76
2022/04/15 09:48:13;;;;;;;;;;;20.90;49.00;;;;;;454292;262;1160;-76
2022/04/15 09:50:14;;;;;;;;;;;20.90;49.00;;;;;;454246;263;1077;-76
2022/04/15 09:52:16;;;;;;;;;;;20.90;49.00;;;;;;454202;262;1272;-76
2022/04/15 09:54:17;;;;;;;;;;;20.80;48.90;;;;;;454275;262;2196;-76
2022/04/15 09:56:18;;;;;;;;;;;20.80;49.10;;;;;;454240;263;1077;-76
2022/04/15 09:58:20;;;;;;;;;;;20.80;49.00;;;;;;454245;263;1065;-76
2022/04/15 10:00:21;;;;;;;;;;;20.90;49.00;;;;;;454280;262;970;-76
2022/04/15 10:02:22;;;;;;;;;;;20.90;49.00;;;;;;454210;263;1239;-76
2022/04/15 10:04:24;;;;;;;;;;;20.90;48.80;;;;;;454237;263;1212;-76
2022/04/15 10:06:25;;;;;;;;;;;20.90;48.80;;;;;;454241;262;1256;-76
2022/04/15 10:08:27;;;;;;;;;;;20.90;49.00;;;;;;454249;262;1148;-76
2022/04/15 10:10:28;;;;;;;;;;;20.90;48.90;;;;;;454243;263;936;-76
2022/04/15 10:12:29;;;;;;;;;;;20.90;48.80;;;;;;454160;262;1251;-76
2022/04/15 10:14:31;;;;;;;;;;;20.90;48.70;;;;;;454221;263;2200;-76
2022/04/15 10:16:32;;;;;;;;;;;20.80;48.80;;;;;;454218;262;1238;-76
2022/04/15 10:18:34;;;;;;;;;;;20.90;48.70;;;;;;454226;263;1047;-76
2022/04/15 10:20:37;;;;;;;;;;;20.80;48.80;;;;;;454189;263;1223;-76
2022/04/15 10:22:36;;;;;;;;;;;20.90;48.50;;;;;;454069;263;1496;-76
2022/04/15 10:24:38;;;;;;;;;;;20.80;48.60;;;;;;454236;262;1219;-76
2022/04/15 10:26:39;;;;;;;;;;;20.90;48.40;;;;;;454188;263;1251;-76
2022/04/15 10:28:42;;;;;;;;;;;20.90;48.40;;;;;;454285;262;993;-76
2022/04/15 10:30:42;;;;;;;;;;;20.80;48.40;;;;;;454163;263;1446;-76
2022/04/15 10:32:43;;;;;;;;;;;20.50;49.00;;;;;;454250;262;1092;-76
2022/04/15 10:34:44;;;;;;;;;;;20.40;49.50;;;;;;454272;263;2200;-76
2022/04/15 10:36:46;;;;;;;;;;;20.30;49.70;;;;;;454211;262;1304;-76
2022/04/15 10:38:47;;;;;;;;;;;20.30;49.80;;;;;;454258;263;1166;-76
2022/04/15 10:40:48;;;;;;;;;;;20.20;49.80;;;;;;454248;263;1015;-76
2022/04/15 10:42:50;;;;;;;;;;;20.10;49.80;;;;;;454266;263;1233;-76
2022/04/15 10:44:51;;;;;;;;;;;20.10;49.80;;;;;;454274;263;1110;-76
2022/04/15 10:46:52;;;;;;;;;;;20.20;49.80;;;;;;454237;263;1233;-76
2022/04/15 10:48:54;;;;;;;;;;;20.10;49.70;;;;;;454283;263;1283;-76
2022/04/15 10:50:55;;;;;;;;;;;20.10;49.90;;;;;;454297;262;964;-76
2022/04/15 10:52:56;;;;;;;;;;;20.10;49.90;;;;;;454264;263;1241;-76
2022/04/15 10:54:58;;;;;;;;;;;20.00;49.80;;;;;;454230;262;2208;-76
2022/04/15 10:56:59;;;;;;;;;;;20.10;49.80;;;;;;454144;263;1140;-76
2022/04/15 11:01:20;;;;;;;;;;;20.10;49.80;;;;;;454352;261;1364;-75
2022/04/15 11:03:21;;;;;;;;;;;20.10;49.90;;;;;;454250;262;1318;-76
2022/04/15 11:05:22;;;;;;;;;;;20.00;50.00;;;;;;454303;263;949;-76
2022/04/15 11:07:23;;;;;;;;;;;20.00;50.00;;;;;;454224;263;1359;-76
2022/04/15 11:09:25;;;;;;;;;;;20.00;50.00;;;;;;454292;262;1208;-76
2022/04/15 11:11:27;;;;;;;;;;;20.00;49.90;;;;;;454243;263;1230;-76
2022/04/15 11:13:28;;;;;;;;;;;20.10;49.80;;;;;;454278;262;2161;-76
2022/04/15 11:15:29;;;;;;;;;;;20.00;49.80;;;;;;454297;263;965;-76
2022/04/15 11:17:31;;;;;;;;;;;20.00;49.80;;;;;;454277;263;1061;-76
2022/04/15 11:19:32;;;;;;;;;;;20.00;49.70;;;;;;454276;263;984;-76
2022/04/15 11:21:35;;;;;;;;;;;20.00;49.60;;;;;;454275;263;1024;-76
2022/04/15 11:23:35;;;;;;;;;;;20.00;49.80;;;;;;454265;262;1645;-76
2022/04/15 11:25:37;;;;;;;;;;;20.00;49.80;;;;;;454274;262;1183;-76
2022/04/15 11:27:39;;;;;;;;;;;20.00;49.60;;;;;;454275;262;1001;-76
2022/04/15 11:29:39;;;;;;;;;;;20.30;49.20;;;;;;454219;263;1504;-76
2022/04/15 11:31:41;;;;;;;;;;;20.50;48.60;;;;;;454388;262;1067;-76
2022/04/15 11:33:42;;;;;;;;;;;20.80;47.80;;;;;;454295;262;2204;-76
2022/04/15 11:35:43;;;;;;;;;;;21.10;47.00;;;;;;454273;263;1053;-76
2022/04/15 11:37:45;;;;;;;;;;;21.10;46.90;;;;;;454283;263;980;-76
2022/04/15 11:39:47;;;;;;;;;;;21.30;46.30;;;;;;454344;262;1201;-76
2022/04/15 11:41:47;;;;;;;;;;;21.40;46.20;;;;;;454209;263;1546;-76
2022/04/15 11:43:49;;;;;;;;;;;21.40;46.00;;;;;;454336;263;1394;-76
2022/04/15 11:45:50;;;;;;;;;;;21.50;45.70;;;;;;454461;262;1123;-76
2022/04/15 11:47:51;;;;;;;;;;;21.50;45.70;;;;;;454336;262;1467;-76
2022/04/15 11:49:53;;;;;;;;;;;21.40;45.60;;;;;;454311;263;1016;-76
2022/04/15 11:51:54;;;;;;;;;;;21.50;45.50;;;;;;454247;263;1120;-76
2022/04/15 11:53:56;;;;;;;;;;;21.60;45.40;;;;;;454301;263;2196;-76
2022/04/15 11:55:58;;;;;;;;;;;21.60;45.10;;;;;;454248;263;1391;-76
2022/04/15 11:57:58;;;;;;;;;;;21.60;44.90;;;;;;454232;263;1502;-76
2022/04/15 11:59:59;;;;;;;;;;;21.60;44.70;;;;;;454305;262;998;-76
2022/04/15 12:02:00;;;;;;;;;;;21.70;44.40;;;;;;454149;263;1259;-76